OPLA/LHE METAR and TAF weather

Enter ICAO airport designator
Station Type Date Time Source
OPLA METAR 2020/04/02 03:25 UTC NOAA

OPLA 020325Z 33009KT 6000 NSC 19/14 Q1011 RMK QFE986 RMK A29.86


Station Type Date Time Source
OPLA Decoded METAR 2020/04/02 03:25 UTC NOAA

Lahore Airport, Pakistan (OPLA) 31-31N 074-24E 217M
Apr 01, 2020 - 11:25 PM EDT / 2020.04.02 0325 UTC
Wind: from the NNW (330 degrees) at 10 MPH (9 KT):0
Visibility: 3 mile(s):0
Temperature: 66 F (19 C)
Dew Point: 57 F (14 C)
Relative Humidity: 72%
Pressure (altimeter): 29.85 in. Hg (1011 hPa)
ob: OPLA 020325Z 33009KT 6000 NSC 19/14 Q1011 RMK QFE986 RMK A29.86
cycle: 3

Station Type Date Time Source
OPLA TAF 2020/04/01 18:10 UTC NOAA

TAF OPLA 011545Z 0118/0224 31003KT 4000 FU NSC TX29/0210Z TN16/0201Z
FM020500 31008KT 6000 NSC
FM021300 31004KT 4000 FU NSC

Example: see airport list